Time;durP1;ratioP1;P1;durP2;ratioP2;P2;SDS_P1;SDS_P2;PMS_P1;PMS_P2;Temp;Humidity;BMP_temperature;BMP_pressure;BME280_temperature;BME280_humidity;BME280_pressure;Samples;Min_cycle;Max_cycle;Signal;HPM_P1;HPM_P2
2021/10/21 00:00:08;;;;;;;11.02;4.18;;;;;;;15.42;95.24;98822.72;5004094;28;20092;-49
2021/10/21 00:02:39;;;;;;;11.63;4.18;;;;;;;15.42;95.32;98817.25;5012677;28;20041;-50
2021/10/21 00:05:08;;;;;;;8.05;3.35;;;;;;;15.40;95.65;98803.06;5013180;28;20096;-47
2021/10/21 00:07:35;;;;;;;8.45;3.78;;;;;;;15.41;95.92;98807.38;5012122;28;20057;-47
2021/10/21 00:10:04;;;;;;;7.22;3.80;;;;;;;15.41;95.94;98805.44;4996583;28;20038;-45
2021/10/21 00:12:32;;;;;;;9.48;4.10;;;;;;;15.43;96.21;98780.41;5008336;28;20042;-47
2021/10/21 00:15:00;;;;;;;10.15;3.80;;;;;;;15.43;96.15;98766.69;5012078;28;20058;-46
2021/10/21 00:17:28;;;;;;;7.95;3.72;;;;;;;15.42;96.36;98740.41;5005706;28;20069;-46
2021/10/21 00:19:57;;;;;;;12.55;4.20;;;;;;;15.43;95.88;98725.50;5007803;28;20034;-46
2021/10/21 00:22:24;;;;;;;10.70;4.13;;;;;;;15.33;96.67;98719.38;5012726;28;20053;-45
2021/10/21 00:24:52;;;;;;;7.93;3.42;;;;;;;15.30;96.36;98730.28;5012130;28;20034;-46
2021/10/21 00:27:20;;;;;;;10.43;3.85;;;;;;;15.28;96.79;98725.13;5012490;28;21123;-47
2021/10/21 00:29:47;;;;;;;9.63;4.25;;;;;;;15.28;96.06;98683.97;4991652;28;20981;-47
2021/10/21 00:32:15;;;;;;;6.15;3.10;;;;;;;15.30;94.97;98706.38;4985011;28;20041;-43
2021/10/21 00:34:42;;;;;;;4.30;2.83;;;;;;;15.41;94.92;98711.34;5012187;28;20901;-46
2021/10/21 00:37:10;;;;;;;6.43;3.10;;;;;;;15.43;94.90;98698.06;5012284;28;20034;-44
2021/10/21 00:39:37;;;;;;;8.52;3.47;;;;;;;15.41;94.87;98695.66;5003603;28;20045;-47
2021/10/21 00:42:05;;;;;;;4.70;2.67;;;;;;;15.55;92.15;98687.00;5012075;28;20038;-47
2021/10/21 00:44:33;;;;;;;5.13;2.80;;;;;;;15.51;90.17;98669.66;5011824;28;20041;-46
2021/10/21 00:47:00;;;;;;;5.35;2.75;;;;;;;15.49;90.98;98674.69;5011903;28;20115;-46
2021/10/21 00:49:28;;;;;;;5.60;2.63;;;;;;;15.44;88.99;98673.03;5000664;28;20045;-46
2021/10/21 00:51:55;;;;;;;5.05;3.10;;;;;;;15.44;89.66;98694.16;4994751;28;20050;-46
2021/10/21 00:54:23;;;;;;;4.72;2.85;;;;;;;15.42;89.77;98682.75;5011763;28;20599;-45
2021/10/21 00:56:52;;;;;;;4.97;2.78;;;;;;;15.41;89.65;98701.16;5010886;28;20038;-47
2021/10/21 00:59:20;;;;;;;3.42;2.50;;;;;;;15.47;89.11;98699.75;4994962;28;20042;-44
2021/10/21 01:01:48;;;;;;;5.50;2.70;;;;;;;15.47;87.50;98682.50;5003470;28;20048;-44
2021/10/21 01:04:15;;;;;;;5.28;2.53;;;;;;;15.53;84.57;98692.06;5012112;28;20050;-46
2021/10/21 01:06:43;;;;;;;4.03;2.13;;;;;;;15.55;84.82;98690.53;5011743;28;20199;-46
2021/10/21 01:09:10;;;;;;;4.00;2.42;;;;;;;15.58;86.64;98685.50;5001995;28;20046;-46
2021/10/21 01:11:41;;;;;;;5.57;2.60;;;;;;;15.58;83.97;98701.97;5003889;28;20068;-47
2021/10/21 01:14:09;;;;;;;4.13;2.28;;;;;;;15.58;83.81;98694.53;5011576;28;20385;-47
2021/10/21 01:16:39;;;;;;;5.63;1.92;;;;;;;15.48;83.50;98722.50;5011587;28;20053;-47
2021/10/21 01:19:23;;;;;;;3.15;2.00;;;;;;;15.51;83.36;98699.84;5002707;28;20053;-47
2021/10/21 01:21:53;;;;;;;5.88;2.40;;;;;;;15.49;78.52;98702.13;4984788;28;20038;-46
2021/10/21 01:24:22;;;;;;;2.55;1.98;;;;;;;15.28;75.49;98702.41;4988043;28;20051;-47
2021/10/21 01:26:51;;;;;;;6.45;2.00;;;;;;;15.28;78.37;98689.47;4992281;28;20489;-46
2021/10/21 01:29:21;;;;;;;4.75;2.00;;;;;;;15.22;77.87;98685.38;4992089;28;20134;-46
2021/10/21 01:31:49;;;;;;;5.40;1.83;;;;;;;15.18;75.15;98695.47;4991609;28;20049;-46
2021/10/21 01:34:16;;;;;;;4.05;2.00;;;;;;;15.08;77.70;98693.22;4991696;28;20053;-45
2021/10/21 01:36:53;;;;;;;7.70;1.80;;;;;;;15.03;74.59;98693.47;4990963;28;20382;-46
2021/10/21 01:39:21;;;;;;;;;;;;;;;14.98;78.65;98685.50;4991934;28;20390;-45
2021/10/21 01:41:49;;;;;;;5.22;1.83;;;;;;;14.98;76.68;98680.00;4991752;28;19921;-47
2021/10/21 01:44:16;;;;;;;4.63;1.98;;;;;;;14.96;78.42;98680.38;4991723;28;20046;-47
2021/10/21 01:46:44;;;;;;;5.43;1.60;;;;;;;14.87;73.96;98677.00;4991585;28;20070;-43
2021/10/21 01:49:12;;;;;;;5.15;1.65;;;;;;;14.79;72.05;98670.53;4991510;28;20049;-45
2021/10/21 01:51:39;;;;;;;4.25;1.60;;;;;;;14.81;73.43;98667.41;4991721;28;20062;-46
2021/10/21 01:54:07;;;;;;;4.20;1.80;;;;;;;14.78;73.69;98668.91;4991520;28;20048;-46
2021/10/21 01:56:34;;;;;;;6.90;1.58;;;;;;;14.72;71.79;98662.09;4991509;28;20053;-46
2021/10/21 01:59:02;;;;;;;3.75;1.65;;;;;;;14.74;76.20;98639.78;4991757;28;20050;-47
2021/10/21 02:01:29;;;;;;;4.50;2.10;;;;;;;14.69;75.38;98643.59;4991098;28;20045;-44
2021/10/21 02:03:57;;;;;;;9.35;2.22;;;;;;;14.61;72.35;98650.03;4991564;28;20050;-46
2021/10/21 02:06:25;;;;;;;8.27;1.92;;;;;;;14.59;71.41;98644.09;4990363;28;20493;-46
2021/10/21 02:08:52;;;;;;;5.35;1.95;;;;;;;14.63;73.36;98650.47;4991801;28;20433;-46
2021/10/21 02:11:20;;;;;;;3.78;1.20;;;;;;;14.59;71.55;98644.88;4990624;28;20054;-46
2021/10/21 02:13:48;;;;;;;5.25;1.73;;;;;;;14.59;72.01;98644.09;4991087;28;20035;-47
2021/10/21 02:16:16;;;;;;;7.18;2.30;;;;;;;14.59;71.81;98647.63;4991197;28;20052;-45
2021/10/21 02:18:44;;;;;;;7.50;1.77;;;;;;;14.62;72.79;98637.91;4991901;28;20046;-46
2021/10/21 02:21:11;;;;;;;5.57;1.73;;;;;;;14.62;72.86;98632.41;4991226;28;20528;-46
2021/10/21 02:23:39;;;;;;;5.63;1.73;;;;;;;14.57;71.94;98638.94;4991211;28;20042;-46
2021/10/21 02:26:06;;;;;;;7.28;1.98;;;;;;;14.60;74.80;98624.56;4991313;28;20050;-44
2021/10/21 02:28:34;;;;;;;6.07;1.58;;;;;;;14.60;71.88;98619.09;4991222;28;20447;-46
2021/10/21 02:31:02;;;;;;;4.70;1.80;;;;;;;14.53;71.88;98626.25;4993608;28;20468;-43
2021/10/21 02:33:30;;;;;;;5.28;1.55;;;;;;;14.51;72.90;98625.81;4994343;28;20109;-49
2021/10/21 02:35:57;;;;;;;6.15;2.08;;;;;;;14.62;75.94;98627.75;4988927;28;20458;-47
2021/10/21 02:38:25;;;;;;;3.20;1.65;;;;;;;14.57;72.54;98624.44;4988801;28;20042;-45
2021/10/21 02:40:54;;;;;;;5.30;1.70;;;;;;;14.60;74.84;98607.31;4994433;28;20445;-47
2021/10/21 02:43:22;;;;;;;3.85;1.67;;;;;;;14.58;73.56;98626.06;4994402;28;20054;-43
2021/10/21 02:45:49;;;;;;;5.07;1.75;;;;;;;14.57;76.93;98624.44;4994704;28;20042;-47
2021/10/21 02:48:17;;;;;;;7.95;2.10;;;;;;;14.60;76.66;98601.81;4994980;28;20126;-47
2021/10/21 02:50:44;;;;;;;5.90;1.85;;;;;;;14.55;77.75;98622.06;4994578;28;20043;-45
2021/10/21 02:53:12;;;;;;;6.75;2.13;;;;;;;14.33;77.30;98615.13;4994423;28;20437;-46
2021/10/21 02:55:39;;;;;;;4.05;1.50;;;;;;;14.31;81.39;98614.72;4993713;28;20065;-46
2021/10/21 02:58:07;;;;;;;5.45;1.88;;;;;;;14.32;80.35;98605.31;4994706;28;20046;-46
2021/10/21 03:00:35;;;;;;;5.63;1.75;;;;;;;14.38;83.41;98611.34;4994409;28;20050;-42
2021/10/21 03:03:02;;;;;;;5.07;1.88;;;;;;;14.37;81.73;98607.81;4994090;28;20046;-46
2021/10/21 03:05:30;;;;;;;4.78;1.90;;;;;;;14.35;81.03;98601.09;4994794;28;20097;-47
2021/10/21 03:07:59;;;;;;;7.28;2.08;;;;;;;14.29;81.25;98603.28;4994140;28;20413;-49
2021/10/21 03:10:27;;;;;;;6.65;1.63;;;;;;;14.29;81.68;98584.13;4994172;28;20043;-45
2021/10/21 03:12:55;;;;;;;3.83;1.58;;;;;;;14.28;80.68;98604.41;4994103;28;20042;-45
2021/10/21 03:15:26;;;;;;;7.03;1.60;;;;;;;14.35;80.01;98609.31;4994060;28;20057;-47
2021/10/21 03:17:55;;;;;;;6.22;1.55;;;;;;;14.33;82.00;98612.38;4993140;28;20054;-45
2021/10/21 03:20:23;;;;;;;6.57;2.00;;;;;;;14.36;83.25;98614.47;4994568;28;20421;-46
2021/10/21 03:22:51;;;;;;;4.75;1.70;;;;;;;14.21;80.97;98607.75;4993368;28;20054;-46
2021/10/21 03:25:18;;;;;;;4.78;1.88;;;;;;;14.11;82.00;98597.28;4994002;28;20057;-47
2021/10/21 03:27:46;;;;;;;8.90;1.90;;;;;;;14.01;81.86;98595.81;4994383;28;20050;-46
2021/10/21 03:30:14;;;;;;;4.28;1.70;;;;;;;13.98;82.03;98582.81;4993947;28;20504;-43
2021/10/21 03:33:00;;;;;;;6.88;2.08;;;;;;;13.96;83.16;98601.53;4993774;28;20045;-45
2021/10/21 03:35:28;;;;;;;6.47;2.40;;;;;;;14.05;84.91;98596.72;4993526;28;20078;-47
2021/10/21 03:37:55;;;;;;;5.35;2.00;;;;;;;14.02;84.24;98582.91;4993557;28;20038;-45
2021/10/21 03:40:23;;;;;;;5.43;2.10;;;;;;;14.06;84.60;98583.84;4994196;28;20050;-43
2021/10/21 03:42:50;;;;;;;4.00;1.60;;;;;;;14.10;85.41;98586.69;4993227;28;20089;-45
2021/10/21 03:45:18;;;;;;;5.03;1.70;;;;;;;14.06;86.11;98579.16;4993553;28;20079;-45
2021/10/21 03:47:46;;;;;;;4.63;1.30;;;;;;;14.01;86.59;98584.88;4989322;28;20520;-46
2021/10/21 03:50:14;;;;;;;4.05;1.38;;;;;;;14.10;86.53;98578.47;4986650;28;20038;-46
2021/10/21 03:52:41;;;;;;;5.68;1.88;;;;;;;14.04;86.92;98570.47;4993386;28;20118;-47
2021/10/21 03:55:09;;;;;;;4.10;1.88;;;;;;;13.92;85.31;98572.44;4993200;28;20038;-47
2021/10/21 03:57:37;;;;;;;4.07;1.92;;;;;;;13.89;87.15;98575.88;4993458;28;20038;-47
2021/10/21 04:00:08;;;;;;;3.47;1.67;;;;;;;13.78;84.87;98578.28;4993688;28;20046;-45
2021/10/21 04:02:41;;;;;;;9.23;2.20;;;;;;;13.73;84.99;98570.31;4992849;28;20042;-47
2021/10/21 04:05:09;;;;;;;5.60;2.00;;;;;;;13.75;86.08;98578.97;4991962;28;20142;-45
2021/10/21 04:07:37;;;;;;;5.75;1.60;;;;;;;13.72;85.21;98574.22;4993091;28;20050;-47
2021/10/21 04:10:05;;;;;;;5.00;1.83;;;;;;;13.73;85.60;98570.31;4993059;28;20459;-47
2021/10/21 04:12:32;;;;;;;5.07;2.08;;;;;;;13.77;85.37;98560.28;4993190;28;20030;-50
2021/10/21 04:15:00;;;;;;;5.20;1.80;;;;;;;13.78;85.33;98556.41;4992924;28;20049;-47
2021/10/21 04:17:28;;;;;;;6.97;2.08;;;;;;;13.79;85.59;98560.75;4993429;28;20093;-45
2021/10/21 04:19:55;;;;;;;5.53;1.80;;;;;;;13.90;87.82;98555.56;4993088;28;20425;-45
2021/10/21 04:22:23;;;;;;;7.30;2.17;;;;;;;13.79;86.05;98550.59;4992378;28;20053;-47
2021/10/21 04:24:50;;;;;;;4.43;1.55;;;;;;;13.76;86.94;98553.22;4993099;28;20039;-47
2021/10/21 04:27:18;;;;;;;5.30;1.88;;;;;;;13.67;85.85;98547.88;4993187;28;20055;-47
2021/10/21 04:29:46;;;;;;;2.60;1.25;;;;;;;13.65;87.23;98544.69;4993156;28;20043;-46
2021/10/21 04:32:13;;;;;;;3.78;1.52;;;;;;;13.67;87.64;98538.88;4992796;28;20405;-46
2021/10/21 04:34:41;;;;;;;5.43;1.58;;;;;;;13.64;86.69;98546.63;4990570;28;20055;-44
2021/10/21 04:37:08;;;;;;;6.15;1.70;;;;;;;13.58;85.17;98531.56;4989598;28;20030;-45
2021/10/21 04:39:36;;;;;;;7.07;1.83;;;;;;;13.70;86.54;98538.97;4993001;28;20394;-45
2021/10/21 04:42:03;;;;;;;3.13;1.52;;;;;;;13.68;87.28;98537.72;4992285;28;20065;-44
2021/10/21 04:44:31;;;;;;;3.92;1.73;;;;;;;13.69;86.64;98533.84;4992201;28;20042;-47
2021/10/21 04:46:58;;;;;;;4.95;2.13;;;;;;;13.56;86.08;98536.59;4992493;28;20042;-45
2021/10/21 04:49:27;;;;;;;5.30;2.08;;;;;;;13.63;87.31;98549.69;4992614;28;20133;-45
2021/10/21 04:51:54;;;;;;;2.83;1.27;;;;;;;13.60;86.92;98545.72;4992685;28;20042;-46
2021/10/21 04:54:22;;;;;;;4.10;1.40;;;;;;;13.80;88.07;98545.91;4991171;28;20043;-46
2021/10/21 04:56:50;;;;;;;7.30;1.30;;;;;;;13.80;89.24;98535.75;4991174;28;20046;-46
2021/10/21 04:59:17;;;;;;;3.63;1.42;;;;;;;13.75;89.73;98546.13;4992569;28;20038;-46
2021/10/21 05:01:45;;;;;;;4.40;1.50;;;;;;;13.70;86.00;98565.53;5007383;28;20038;-46
2021/10/21 05:04:12;;;;;;;5.25;1.63;;;;;;;13.59;86.62;98560.53;4991378;28;20093;-46
2021/10/21 05:06:40;;;;;;;3.65;1.65;;;;;;;13.51;86.66;98572.38;4992000;28;20050;-45
2021/10/21 05:09:07;;;;;;;5.13;1.48;;;;;;;13.43;86.36;98578.78;4992464;28;20056;-45
2021/10/21 05:11:35;;;;;;;5.40;1.23;;;;;;;13.25;86.89;98594.56;4992392;28;20053;-46
2021/10/21 05:14:02;;;;;;;4.35;1.58;;;;;;;13.12;87.27;98603.91;4991851;28;20042;-45
2021/10/21 05:16:30;;;;;;;7.88;2.10;;;;;;;12.99;88.14;98609.34;4991567;28;20046;-43
2021/10/21 05:18:58;;;;;;;2.63;1.25;;;;;;;12.93;89.54;98620.84;4297191;28;10000659;-48
2021/10/21 05:21:25;;;;;;;5.60;1.83;;;;;;;12.92;89.54;98624.72;4987058;28;20386;-44
2021/10/21 05:23:53;;;;;;;6.80;1.80;;;;;;;12.73;89.11;98661.53;4980317;28;20046;-46
2021/10/21 05:26:21;;;;;;;7.10;2.08;;;;;;;12.47;87.02;98674.63;4989765;28;20050;-46
2021/10/21 05:28:49;;;;;;;6.85;2.50;;;;;;;12.41;86.95;98681.41;4989717;28;20493;-47
2021/10/21 05:31:16;;;;;;;61.58;4.20;;;;;;;12.24;85.58;98743.22;4989720;28;20039;-48
2021/10/21 05:33:44;;;;;;;4.93;1.58;;;;;;;11.96;86.38;98753.78;4988916;28;20042;-46
2021/10/21 05:36:11;;;;;;;4.70;1.40;;;;;;;11.83;86.12;98801.16;4989731;28;20112;-45
2021/10/21 05:38:39;;;;;;;9.23;1.77;;;;;;;11.77;86.25;98849.66;4988044;28;20386;-50
2021/10/21 05:41:08;;;;;;;4.03;1.42;;;;;;;11.75;85.60;98873.72;4989724;28;20074;-47
2021/10/21 05:43:35;;;;;;;4.13;1.20;;;;;;;11.65;84.87;98940.31;4989425;28;20465;-49
2021/10/21 05:46:03;;;;;;;5.32;1.65;;;;;;;11.63;85.22;98958.94;4989470;28;20049;-46
2021/10/21 05:48:31;;;;;;;2.92;1.17;;;;;;;11.64;84.72;98987.84;4989145;28;20456;-47
2021/10/21 05:51:01;;;;;;;6.32;1.80;;;;;;;11.59;85.27;99023.44;4989537;28;20662;-47
2021/10/21 05:53:28;;;;;;;7.53;1.90;;;;;;;11.53;86.61;99057.44;4989639;28;20678;-46
2021/10/21 05:55:56;;;;;;;6.10;2.17;;;;;;;11.48;86.25;99102.03;4989403;28;20053;-46
2021/10/21 05:58:23;;;;;;;8.50;2.15;;;;;;;11.52;86.15;99104.94;4989810;28;20046;-43
2021/10/21 06:00:51;;;;;;;6.90;2.17;;;;;;;11.51;86.45;99150.50;4989439;28;20043;-46
2021/10/21 06:03:19;;;;;;;7.00;2.08;;;;;;;11.49;85.52;99176.47;4982570;28;20093;-43
2021/10/21 06:05:47;;;;;;;8.18;2.05;;;;;;;11.46;85.63;99210.63;4992088;28;20056;-46
2021/10/21 06:08:14;;;;;;;10.73;2.28;;;;;;;11.50;87.22;99219.00;4992881;28;20038;-43
2021/10/21 06:10:42;;;;;;;7.65;2.45;;;;;;;11.51;87.38;99261.53;4993299;28;20045;-47
2021/10/21 06:13:09;;;;;;;9.00;2.92;;;;;;;11.48;87.84;99268.41;4993408;28;20064;-44
2021/10/21 06:15:37;;;;;;;10.20;2.58;;;;;;;11.50;88.34;99285.28;4992326;28;20054;-46
2021/10/21 06:18:05;;;;;;;11.48;2.80;;;;;;;11.47;88.23;99294.09;4992540;28;20042;-44
2021/10/21 06:20:34;;;;;;;12.30;2.30;;;;;;;11.48;89.33;99328.41;4992835;28;20042;-47
2021/10/21 06:23:06;;;;;;;12.20;2.88;;;;;;;11.50;88.29;99330.84;4993045;28;20050;-48
2021/10/21 06:25:34;;;;;;;11.30;3.00;;;;;;;11.47;88.72;99351.34;4992215;28;20129;-45
2021/10/21 06:28:02;;;;;;;15.35;3.03;;;;;;;11.48;88.47;99374.78;4991756;28;20045;-48
2021/10/21 06:30:30;;;;;;;10.68;3.08;;;;;;;11.55;88.75;99398.09;4992418;28;20053;-47
2021/10/21 06:32:57;;;;;;;13.25;3.28;;;;;;;11.57;88.86;99401.31;4992154;28;20633;-48
2021/10/21 06:35:25;;;;;;;12.73;2.85;;;;;;;11.58;88.70;99411.13;4992514;28;20054;-48
2021/10/21 06:37:53;;;;;;;14.15;3.35;;;;;;;11.55;87.27;99422.66;4992677;28;20057;-48
2021/10/21 06:40:20;;;;;;;15.63;3.05;;;;;;;11.51;88.37;99445.06;4990115;28;20046;-48
2021/10/21 06:42:48;;;;;;;12.70;3.15;;;;;;;11.57;88.38;99453.13;4991816;28;20038;-47
2021/10/21 06:45:16;;;;;;;13.23;3.05;;;;;;;11.61;87.76;99465.84;4992120;28;20085;-47
2021/10/21 06:47:43;;;;;;;11.88;3.42;;;;;;;11.67;87.80;99472.81;4979198;28;20068;-47
2021/10/21 06:50:12;;;;;;;13.70;3.25;;;;;;;11.66;87.24;99481.28;4994014;28;20516;-44
2021/10/21 06:52:41;;;;;;;12.52;3.28;;;;;;;11.69;88.43;99495.16;4994733;28;20118;-47
2021/10/21 06:55:09;;;;;;;13.00;3.60;;;;;;;11.68;87.91;99506.34;4993710;28;20078;-48
2021/10/21 06:57:47;;;;;;;12.65;3.20;;;;;;;11.77;88.20;99518.16;4993658;28;20477;-47
2021/10/21 07:00:16;;;;;;;13.30;3.33;;;;;;;11.83;88.44;99530.56;4992454;28;20493;-48
2021/10/21 07:02:43;;;;;;;9.93;2.88;;;;;;;11.85;88.39;99550.16;4987119;28;20093;-46
2021/10/21 07:05:12;;;;;;;14.60;3.60;;;;;;;11.91;87.46;99561.81;4984902;28;20046;-43
2021/10/21 07:07:40;;;;;;;11.30;3.00;;;;;;;11.98;85.85;99578.59;4994280;28;20046;-44
2021/10/21 07:10:09;;;;;;;15.40;4.10;;;;;;;11.91;85.26;99592.66;4993431;28;20051;-48
2021/10/21 07:12:38;;;;;;;13.00;3.05;;;;;;;11.87;82.69;99624.38;4993684;28;20433;-47
2021/10/21 07:15:07;;;;;;;12.25;3.38;;;;;;;11.90;82.65;99621.03;4993602;28;20057;-47
2021/10/21 07:17:36;;;;;;;12.75;3.03;;;;;;;11.76;83.01;99628.44;4993064;28;20074;-44
2021/10/21 07:20:07;;;;;;;15.00;3.35;;;;;;;11.65;83.36;99643.41;4994300;28;20084;-47
2021/10/21 07:22:35;;;;;;;9.73;2.83;;;;;;;11.58;83.42;99670.28;4994098;28;20046;-47
2021/10/21 07:25:03;;;;;;;15.85;4.15;;;;;;;11.67;83.58;99679.38;4993762;28;20046;-45
2021/10/21 07:27:31;;;;;;;13.80;3.70;;;;;;;11.67;81.92;99696.53;4993692;28;20047;-46
2021/10/21 07:29:59;;;;;;;26.23;6.13;;;;;;;11.82;85.71;99689.97;4993506;28;20456;-42
2021/10/21 07:32:26;;;;;;;17.80;4.78;;;;;;;12.07;84.01;99717.88;4993640;28;20055;-45
2021/10/21 07:34:54;;;;;;;15.38;4.57;;;;;;;12.21;81.01;99731.53;4993452;28;20062;-45
2021/10/21 07:37:22;;;;;;;17.30;3.83;;;;;;;12.07;80.74;99737.00;4993713;28;20134;-46
2021/10/21 07:39:49;;;;;;;12.27;3.22;;;;;;;11.89;79.26;99741.47;4994271;28;20101;-47
2021/10/21 07:42:17;;;;;;;15.45;3.72;;;;;;;11.73;79.37;99762.75;4992770;28;20042;-47
2021/10/21 07:44:45;;;;;;;14.23;3.65;;;;;;;11.76;77.72;99770.34;4993447;28;20105;-47
2021/10/21 07:47:13;;;;;;;19.70;3.80;;;;;;;11.68;75.72;99777.28;4993526;28;20049;-43
2021/10/21 07:49:41;;;;;;;21.55;4.18;;;;;;;11.63;75.53;99787.50;4993652;28;20493;-44
2021/10/21 07:52:09;;;;;;;17.50;3.42;;;;;;;11.70;76.67;99798.81;4992833;28;20046;-47
2021/10/21 07:54:36;;;;;;;14.93;3.65;;;;;;;11.71;76.15;99803.16;4993273;28;20050;-45
2021/10/21 07:57:06;;;;;;;14.07;3.65;;;;;;;11.76;76.50;99797.63;4993219;28;20053;-46
2021/10/21 07:59:35;;;;;;;17.77;4.22;;;;;;;11.69;75.66;99829.97;4993336;28;20405;-46
2021/10/21 08:02:03;;;;;;;15.75;3.50;;;;;;;11.74;76.29;99827.13;4993001;28;20049;-48
2021/10/21 08:04:32;;;;;;;15.32;3.28;;;;;;;11.79;75.78;99840.69;4992871;28;20134;-47
2021/10/21 08:07:00;;;;;;;16.15;4.00;;;;;;;11.82;75.27;99837.34;4993346;28;20147;-46
2021/10/21 08:09:30;;;;;;;22.73;4.57;;;;;;;12.01;76.81;99841.97;4993239;28;20053;-45
2021/10/21 08:11:59;;;;;;;15.13;3.88;;;;;;;12.16;77.69;99838.94;4992975;28;20462;-44
2021/10/21 08:14:27;;;;;;;10.95;3.20;;;;;;;12.16;73.39;99852.59;4992076;28;20226;-46
2021/10/21 08:16:56;;;;;;;15.15;3.45;;;;;;;12.11;74.83;99844.50;4993049;28;20073;-45
2021/10/21 08:19:24;;;;;;;12.30;3.28;;;;;;;12.02;73.45;99862.69;4992588;28;20421;-45
2021/10/21 08:21:53;;;;;;;13.18;3.40;;;;;;;12.05;73.84;99864.81;4993038;28;20030;-46
2021/10/21 08:24:22;;;;;;;14.23;3.70;;;;;;;12.09;74.10;99868.56;4992530;28;20042;-46
2021/10/21 08:26:51;;;;;;;13.90;3.88;;;;;;;12.15;75.68;99859.97;4979160;28;20521;-43
2021/10/21 08:29:24;;;;;;;13.75;3.40;;;;;;;12.20;73.95;99872.72;4992529;28;20046;-47
2021/10/21 08:32:01;;;;;;;13.23;3.05;;;;;;;12.15;73.94;99878.28;4991792;28;20038;-46
2021/10/21 08:34:30;;;;;;;16.30;4.00;;;;;;;12.09;73.50;99895.88;4991952;28;20058;-45
2021/10/21 08:36:58;;;;;;;14.50;3.83;;;;;;;12.02;74.63;99903.63;5007584;28;20050;-46
2021/10/21 08:39:26;;;;;;;13.98;3.58;;;;;;;12.02;75.00;99909.09;4993045;28;20042;-46
2021/10/21 08:41:54;;;;;;;14.57;3.20;;;;;;;12.02;74.09;99914.56;4992427;28;20050;-44
2021/10/21 08:44:21;;;;;;;12.65;3.50;;;;;;;12.07;74.12;99919.94;4991959;28;20129;-46
2021/10/21 08:46:53;;;;;;;12.10;3.20;;;;;;;12.17;73.68;99924.41;4992228;28;20054;-46
2021/10/21 08:49:21;;;;;;;13.88;3.40;;;;;;;12.11;73.47;99929.16;4992572;28;20050;-46
2021/10/21 08:51:53;;;;;;;11.18;3.05;;;;;;;12.15;73.36;99936.44;4992545;28;20108;-46
2021/10/21 08:54:22;;;;;;;10.77;2.97;;;;;;;12.06;72.30;99951.09;4991837;28;20043;-46
2021/10/21 08:56:49;;;;;;;14.38;3.45;;;;;;;12.04;72.08;99945.09;4991144;28;20068;-47
2021/10/21 08:59:18;;;;;;;13.95;3.33;;;;;;;12.13;72.24;99965.16;4991722;28;20105;-44
2021/10/21 09:01:49;;;;;;;12.40;3.53;;;;;;;12.16;71.59;99959.09;4992421;28;20050;-45
2021/10/21 09:09:22;;;;;;;14.30;3.30;;;;;;;12.34;71.56;99968.34;4988523;28;20500;-47
2021/10/21 09:12:08;;;;;;;14.45;2.92;;;;;;;12.25;71.27;99979.16;4991379;28;20034;-45
2021/10/21 09:14:37;;;;;;;14.77;4.10;;;;;;;12.30;74.16;100000.91;4991597;28;20482;-45
2021/10/21 09:17:07;;;;;;;15.77;4.38;;;;;;;12.43;74.90;100003.97;4991963;28;20501;-46
2021/10/21 09:19:35;;;;;;;13.02;3.30;;;;;;;12.51;77.24;100036.88;4991723;28;20046;-46
2021/10/21 09:22:06;;;;;;;22.80;4.35;;;;;;;12.27;78.34;100030.75;4991861;28;20048;-47
2021/10/21 09:24:40;;;;;;;13.85;3.65;;;;;;;12.18;78.95;100044.25;4991346;28;20045;-45
2021/10/21 09:27:13;;;;;;;14.07;3.38;;;;;;;12.14;79.94;100048.69;4991013;28;20061;-44
2021/10/21 09:29:44;;;;;;;13.05;2.92;;;;;;;12.01;79.96;100055.72;4987328;28;20454;-42
2021/10/21 09:32:28;;;;;;;11.45;3.03;;;;;;;11.90;80.16;100060.50;4989789;28;20129;-44
2021/10/21 09:35:02;;;;;;;9.07;2.85;;;;;;;11.82;81.52;100057.63;4991458;28;20057;-43
2021/10/21 09:37:35;;;;;;;9.68;2.55;;;;;;;11.81;82.07;100062.28;4986734;28;20046;-45
2021/10/21 09:40:04;;;;;;;9.52;2.53;;;;;;;11.82;82.25;100058.44;4996049;28;20401;-46
2021/10/21 09:42:37;;;;;;;5.63;2.50;;;;;;;11.78;82.06;100079.22;4997696;28;20489;-45
2021/10/21 09:45:13;;;;;;;8.73;2.25;;;;;;;11.71;83.89;100063.22;4998090;28;20050;-45
2021/10/21 09:47:50;;;;;;;11.13;3.35;;;;;;;11.78;83.86;100068.31;4997360;28;20049;-46
2021/10/21 09:50:18;;;;;;;;;;;;;;;11.70;83.21;100080.69;4998725;28;20057;-45
2021/10/21 09:53:20;;;;;;;10.02;2.92;;;;;;;11.76;85.31;100086.91;4998227;28;19921;-43
2021/10/21 09:55:54;;;;;;;10.18;2.95;;;;;;;11.87;84.53;100077.50;4997553;28;20041;-44
2021/10/21 09:58:23;;;;;;;9.57;2.60;;;;;;;11.63;86.95;100079.44;5012737;28;20052;-44
2021/10/21 10:00:51;;;;;;;10.57;2.85;;;;;;;11.59;85.73;100094.75;4997718;28;20046;-44
2021/10/21 10:03:31;;;;;;;11.15;2.90;;;;;;;11.50;86.53;100092.69;5013226;28;20128;-42
2021/10/21 10:05:59;;;;;;;9.75;2.95;;;;;;;11.43;86.65;100113.25;5012758;28;20053;-45
2021/10/21 10:08:29;;;;;;;8.55;2.85;;;;;;;11.66;88.51;100097.94;4997410;28;20035;-45
2021/10/21 10:11:11;;;;;;;10.05;3.20;;;;;;;12.00;89.72;100106.00;4997977;28;20399;-44
2021/10/21 10:13:44;;;;;;;11.45;3.22;;;;;;;12.26;86.72;100117.31;4997622;28;20046;-45
2021/10/21 10:16:12;;;;;;;11.15;3.38;;;;;;;12.30;84.64;100123.03;4997747;28;20125;-45
2021/10/21 10:18:44;;;;;;;12.95;3.17;;;;;;;12.04;84.88;100117.94;4998118;28;20046;-46
2021/10/21 10:21:23;;;;;;;10.57;3.47;;;;;;;12.09;88.63;100127.97;4997560;28;20053;-42
2021/10/21 10:23:54;;;;;;;9.63;2.92;;;;;;;12.04;87.24;100125.31;4998073;28;20073;-46
2021/10/21 10:26:45;;;;;;;10.45;3.25;;;;;;;12.07;86.44;100116.53;4997486;28;20057;-45
2021/10/21 10:29:44;;;;;;;9.95;3.00;;;;;;;11.90;85.95;100131.50;4997327;28;20054;-44
2021/10/21 10:32:35;;;;;;;8.60;2.80;;;;;;;12.02;85.88;100136.50;4997573;28;20113;-46
2021/10/21 10:35:14;;;;;;;7.90;3.00;;;;;;;11.92;86.02;100140.19;4997218;28;20062;-43
2021/10/21 10:38:04;;;;;;;5.28;2.38;;;;;;;11.86;86.50;100141.34;4993388;28;20481;-47
2021/10/21 10:40:42;;;;;;;6.68;2.95;;;;;;;11.93;86.86;100152.75;4996425;28;20045;-45
2021/10/21 10:43:15;;;;;;;8.30;2.70;;;;;;;12.02;87.41;100154.81;4997862;28;20054;-46
2021/10/21 10:46:03;;;;;;;8.70;3.22;;;;;;;12.17;89.47;100154.63;4997603;28;20121;-47
2021/10/21 10:48:53;;;;;;;8.85;2.97;;;;;;;12.01;87.54;100143.09;4997911;28;20056;-48
2021/10/21 10:51:21;;;;;;;8.23;2.35;;;;;;;11.94;86.46;100148.91;4992419;28;20050;-49
2021/10/21 10:54:04;;;;;;;11.57;3.28;;;;;;;11.89;86.27;100150.91;4994131;28;20104;-48
2021/10/21 10:56:37;;;;;;;9.23;2.88;;;;;;;11.78;85.90;100161.09;4994096;28;20058;-50
2021/10/21 10:59:15;;;;;;;12.30;3.63;;;;;;;12.38;97.11;100157.84;4993653;28;20038;-43
2021/10/21 11:01:43;;;;;;;7.97;2.75;;;;;;;12.71;92.02;100155.97;4994677;28;20050;-46
2021/10/21 11:04:11;;;;;;;8.27;2.80;;;;;;;12.26;84.10;100161.03;4994573;28;20053;-46
2021/10/21 11:06:38;;;;;;;8.88;2.95;;;;;;;11.85;85.17;100177.94;5009109;28;20112;-45
2021/10/21 11:09:07;;;;;;;9.43;2.90;;;;;;;11.82;86.23;100194.09;5008790;28;20041;-46
2021/10/21 11:11:56;;;;;;;6.63;2.58;;;;;;;11.63;85.92;100194.84;4994436;28;20560;-45
2021/10/21 11:14:39;;;;;;;12.02;3.10;;;;;;;11.61;85.85;100205.25;4994025;28;20054;-47
2021/10/21 11:17:09;;;;;;;7.78;2.50;;;;;;;11.73;87.20;100211.09;4993882;28;20501;-48
2021/10/21 11:19:42;;;;;;;8.25;2.47;;;;;;;11.71;84.80;100212.50;4993706;28;20405;-46
2021/10/21 11:22:11;;;;;;;10.23;2.63;;;;;;;11.68;85.47;100208.44;4994228;28;20081;-47
2021/10/21 11:24:48;;;;;;;8.07;2.42;;;;;;;11.84;85.95;100211.00;4993797;28;20453;-44
2021/10/21 11:27:27;;;;;;;5.93;2.10;;;;;;;11.83;85.81;100218.34;4297082;28;10000214;-45
2021/10/21 11:30:09;;;;;;;7.43;2.35;;;;;;;11.83;86.84;100207.44;4989562;28;20058;-46
2021/10/21 11:33:00;;;;;;;7.60;2.60;;;;;;;11.98;87.02;100205.66;4972814;28;20046;-46
2021/10/21 11:35:32;;;;;;;4.90;1.92;;;;;;;11.85;85.81;100199.78;4988804;28;20453;-45
2021/10/21 11:38:05;;;;;;;6.45;2.17;;;;;;;12.14;87.89;100201.63;4991508;28;20117;-44
2021/10/21 11:40:39;;;;;;;11.00;2.58;;;;;;;12.07;84.50;100187.50;4993694;28;20045;-46
2021/10/21 11:43:25;;;;;;;6.50;2.17;;;;;;;12.02;84.55;100203.97;4993879;28;20157;-45
2021/10/21 11:45:58;;;;;;;7.78;2.55;;;;;;;11.94;84.70;100213.63;4993672;28;20058;-46